Willmar, MN

9:18 PM CDT on July 11, 2014 (GMT -0500)
Olivia Regional (KOVL) Elev 1076 ft | 44.78 °N, 95.03 °W | Change Station

Current weather conditions updated 25 minutes ago

Clear
Clear
79 °F
Feels Like 79 °F
N
4
Wind Variable Wind from SSE

Tomorrow is forecast to be Cooler than today.

Today
High -- | Low -- °F
--% Chance of Precip.
Yesterday
High -- | Low -- °F
Precip. -- in
5:43 AM 9:07 PM
Full, 100% visible
Pressure 29.97 in
Visibility 10.0 miles
Clouds Clear
Dew Point 72 °F
Humidity 78%
Rainfall 0.15 in
Snow Depth Not available.
UV 0 out of 12
Pollen .60 out of 12
Air Quality Not available.
Flu Activity Sporadic
METAR KOVL 120153Z AUTO 16003KT 10SM CLR 26/22 A2997 RMK AO2

More Conditions Fewer Conditions

Pressure 29.97 in
Visibility 10.0 miles
Clouds Clear
Dew Point 72 °F
Humidity 78%
Rainfall 0.15 in
Snow Depth Not available.
UV 0 out of 12
Pollen .60 out of 12
Air Quality Not available.
Flu Activity Sporadic
METAR KOVL 120153Z AUTO 16003KT 10SM CLR 26/22 A2997 RMK AO2

More Conditions Fewer Conditions

10-Day Weather Forecast

Almanac

Astronomy

Jul. 11, 2014 Rise Set
Actual Time 5:43 AM CDT 9:07 PM CDT
Civil Twilight 5:07 AM CDT 9:43 PM CDT
Nautical Twilight 4:19 AM CDT 10:31 PM CDT
Astronomical Twilight 3:18 AM CDT 11:31 PM CDT
Moon 8:14 PM CDT (7/11) 5:00 AM CDT (7/11)
Length of Visible Light 16h 35m
Length of Day
15h 23m
Tomorrow will be 1m 28s shorter.
Full, 100% of the Moon is Illuminated
Today
Full
Jul 12
Full
Jul 18
Last Quarter
Jul 26
New
Aug 3
First Quarter

Today's Extremes

State Highs State Lows

Community

WunderPhotos

Upload Photos

1,732,644 photos uploaded!

WunderBlogs® & News

Nearby

Snow Depth

Station Depth Elevation
No new snow has been reported.

Earthquake Activity

City Distance Mag. Time & Date
No recent earthquake activity has been reported nearby.
Minimum magnitude displayed is 2.5.

Coastal Water Temperatures

Place Temperature
No Stations Reporting

Nearby Weather Stations

Station Location Temp. Heat Index Dew Point Humidity Wind Precip. Elev Updated Type
Willmar, Willmar, MN 78.4 °F 81 °F 73 °F 84% ENE  at  4.0 mph 0.00 in / hr 1188 ft 9:12 PM CDT Normal
George Lake, Spicer, MN 77.8 °F 80 °F 73 °F 86% SSW  at  0.0 mph 0.00 in / hr 1171 ft 9:17 PM CDT Rapid Fire
Lake Florida, Spicer, MN 76.8 °F 78 °F 73 °F 87% ENE  at  1.0 mph 0.00 in / hr 1129 ft 9:15 PM CDT Normal
Sibley, New London, MN 75.6 °F 76 °F 69 °F 80% SSE  at  0.0 mph - / hr 1260 ft 9:14 PM CDT Normal
SW of Prinsburg, Prinsburg, MN 79.0 °F 82 °F 71 °F 77% SSE  at  2.0 mph 0.00 in / hr 1071 ft 9:15 PM CDT Normal
Cosmos, Cosmos, MN 79.3 °F 83 °F 74 °F 83% South  at  2.0 mph 0.00 in / hr 1119 ft 11:10 PM UYT Normal

Show More Stations Show Fewer Stations